createdAt,value
2023-01-27T00:00:00.148Z,96.06
2023-01-27T00:02:21.724Z,96.46
2023-01-27T00:04:43.172Z,96.88
2023-01-27T00:07:04.678Z,97.13
2023-01-27T00:09:26.103Z,96.96
2023-01-27T00:12:06.283Z,97.36
2023-01-27T00:14:27.840Z,96.68
2023-01-27T00:16:49.424Z,96.13
2023-01-27T00:19:10.863Z,96.13
2023-01-27T00:21:51.037Z,95.56
2023-01-27T00:24:31.560Z,95.13
2023-01-27T00:26:53.047Z,95.54
2023-01-27T00:29:14.568Z,95.28
2023-01-27T00:31:54.874Z,94.76
2023-01-27T00:34:16.370Z,95.37
2023-01-27T00:36:39.730Z,94.54
2023-01-27T00:39:01.146Z,94.26
2023-01-27T00:41:23.335Z,94.38
2023-01-27T00:43:48.941Z,94.42
2023-01-27T00:46:10.490Z,94.58
2023-01-27T00:48:32.078Z,94.63
2023-01-27T00:50:53.625Z,95.19
2023-01-27T00:53:15.049Z,94.76
2023-01-27T00:55:36.494Z,95.38
2023-01-27T00:57:57.951Z,95.12
2023-01-27T01:00:19.559Z,94.49
2023-01-27T01:02:41.032Z,94.06
2023-01-27T01:05:03.134Z,94.61
2023-01-27T01:07:25.446Z,94.92
2023-01-27T01:09:46.916Z,94.58
2023-01-27T01:12:08.339Z,94.46
2023-01-27T01:14:29.818Z,94.63
2023-01-27T01:16:51.274Z,95.23
2023-01-27T01:19:13.232Z,94.98
2023-01-27T01:21:34.773Z,94.75
2023-01-27T01:23:56.266Z,93.98
2023-01-27T01:26:18.157Z,93.14
2023-01-27T01:28:39.644Z,93.30
2023-01-27T01:31:09.831Z,93.24
2023-01-27T01:33:31.301Z,92.11
2023-01-27T01:35:52.771Z,92.66
2023-01-27T01:38:14.425Z,92.11
2023-01-27T01:40:44.186Z,92.10
2023-01-27T01:43:11.804Z,92.08
2023-01-27T01:45:36.749Z,92.07
2023-01-27T01:48:01.065Z,92.44
2023-01-27T01:50:22.630Z,92.61
2023-01-27T01:52:44.178Z,92.78
2023-01-27T01:55:05.930Z,92.57
2023-01-27T01:57:34.503Z,93.40
2023-01-27T02:00:03.162Z,93.92
2023-01-27T02:02:26.656Z,93.77
2023-01-27T02:04:54.915Z,93.95
2023-01-27T02:07:27.469Z,94.15
2023-01-27T02:09:49.606Z,94.26
2023-01-27T02:12:11.108Z,94.41
2023-01-27T02:14:33.516Z,94.48
2023-01-27T02:16:55.148Z,94.32
2023-01-27T02:19:33.019Z,94.55
2023-01-27T02:21:56.710Z,94.59
2023-01-27T02:24:19.770Z,94.43
2023-01-27T02:26:44.103Z,94.05
2023-01-27T02:29:11.360Z,93.72
2023-01-27T02:31:33.355Z,93.62
2023-01-27T02:34:00.105Z,93.82
2023-01-27T02:36:21.661Z,94.48
2023-01-27T02:38:47.495Z,93.13
2023-01-27T02:41:15.879Z,93.83
2023-01-27T02:43:37.308Z,94.00
2023-01-27T02:45:58.849Z,94.35
2023-01-27T02:48:20.295Z,94.29
2023-01-27T02:50:41.823Z,94.35
2023-01-27T02:53:03.374Z,94.22
2023-01-27T02:55:24.883Z,94.37
2023-01-27T02:57:46.290Z,94.04
2023-01-27T03:00:09.791Z,93.22
2023-01-27T03:02:31.293Z,94.21
2023-01-27T03:04:52.714Z,94.26
2023-01-27T03:07:14.169Z,94.58
2023-01-27T03:09:35.619Z,95.08
2023-01-27T03:12:15.883Z,95.48
2023-01-27T03:14:56.105Z,95.62
2023-01-27T03:17:36.222Z,95.79
2023-01-27T03:19:57.677Z,96.42
2023-01-27T03:22:20.231Z,96.95
2023-01-27T03:24:41.639Z,96.90
2023-01-27T03:27:03.142Z,98.35
2023-01-27T03:29:43.992Z,97.95
2023-01-27T03:32:05.521Z,96.93
2023-01-27T03:34:26.941Z,97.22
2023-01-27T03:37:06.963Z,97.24
2023-01-27T03:39:48.787Z,98.23
2023-01-27T03:42:28.906Z,97.70
2023-01-27T03:45:08.829Z,97.67
2023-01-27T03:47:30.262Z,98.56
2023-01-27T03:49:54.387Z,97.92
2023-01-27T03:52:16.879Z,97.07
2023-01-27T03:54:38.375Z,97.60
2023-01-27T03:57:06.468Z,97.69
2023-01-27T03:59:28.089Z,97.89
2023-01-27T04:01:49.722Z,97.54
2023-01-27T04:04:30.719Z,97.33
2023-01-27T04:06:52.215Z,97.42
2023-01-27T04:09:20.295Z,96.68
2023-01-27T04:11:56.692Z,97.26
2023-01-27T04:14:18.429Z,97.08
2023-01-27T04:16:39.998Z,97.27
2023-01-27T04:19:01.430Z,97.34
2023-01-27T04:21:23.808Z,96.38
2023-01-27T04:23:45.267Z,97.54
2023-01-27T04:26:06.870Z,97.45
2023-01-27T04:28:41.974Z,97.29
2023-01-27T04:31:05.731Z,97.04
2023-01-27T04:33:27.222Z,97.41
2023-01-27T04:35:51.178Z,97.99
2023-01-27T04:38:13.731Z,97.91
2023-01-27T04:40:35.196Z,98.22
2023-01-27T04:42:58.196Z,98.18
2023-01-27T04:45:19.729Z,98.05
2023-01-27T04:47:41.143Z,98.49
2023-01-27T04:50:02.578Z,98.49
2023-01-27T04:52:24.140Z,98.62
2023-01-27T04:54:45.555Z,99.47
2023-01-27T04:57:07.060Z,99.13
2023-01-27T04:59:28.538Z,99.19
2023-01-27T05:01:50.450Z,99.32
2023-01-27T05:04:11.952Z,98.65
2023-01-27T05:06:34.031Z,99.03
2023-01-27T05:08:55.575Z,99.52
2023-01-27T05:11:17.980Z,98.97
2023-01-27T05:13:40.835Z,99.68
2023-01-27T05:16:07.433Z,99.61
2023-01-27T05:18:28.893Z,99.49
2023-01-27T05:20:51.517Z,99.26
2023-01-27T05:23:32.212Z,99.07
2023-01-27T05:25:53.668Z,98.93
2023-01-27T05:28:15.097Z,99.14
2023-01-27T05:30:36.868Z,99.49
2023-01-27T05:32:58.300Z,99.53
2023-01-27T05:35:19.750Z,99.69
2023-01-27T05:37:41.187Z,99.86
2023-01-27T05:40:02.627Z,98.90
2023-01-27T05:42:24.095Z,98.72
2023-01-27T05:44:45.527Z,98.89
2023-01-27T05:47:07.024Z,98.89
2023-01-27T05:49:28.518Z,98.72
2023-01-27T05:51:49.995Z,99.05
2023-01-27T05:54:11.454Z,98.29
2023-01-27T05:56:33.711Z,98.14
2023-01-27T05:58:56.680Z,98.25
2023-01-27T06:01:23.816Z,98.24
2023-01-27T06:03:46.349Z,98.67
2023-01-27T06:06:08.557Z,98.77
2023-01-27T06:08:30.476Z,98.78
2023-01-27T06:11:05.998Z,98.22
2023-01-27T06:13:27.772Z,98.44
2023-01-27T06:15:50.190Z,98.73
2023-01-27T06:18:12.240Z,98.45
2023-01-27T06:20:33.725Z,98.30
2023-01-27T06:22:55.222Z,98.01
2023-01-27T06:25:17.036Z,98.50
2023-01-27T06:27:38.525Z,98.15
2023-01-27T06:29:59.941Z,97.40
2023-01-27T06:32:21.476Z,97.56
2023-01-27T06:34:42.913Z,97.67
2023-01-27T06:37:04.582Z,98.06
2023-01-27T06:39:26.011Z,97.82
2023-01-27T06:41:49.862Z,97.35
2023-01-27T06:44:11.343Z,96.87
2023-01-27T06:46:32.883Z,97.36
2023-01-27T06:48:54.375Z,97.47
2023-01-27T06:51:15.816Z,97.07
2023-01-27T06:53:38.769Z,97.35
2023-01-27T06:56:01.099Z,97.54
2023-01-27T06:58:22.905Z,97.05
2023-01-27T07:00:44.565Z,97.17
2023-01-27T07:03:06.560Z,96.30
2023-01-27T07:05:28.032Z,96.40
2023-01-27T07:07:49.489Z,96.50
2023-01-27T07:10:24.041Z,95.67
2023-01-27T07:12:45.516Z,95.39
2023-01-27T07:15:08.860Z,96.14
2023-01-27T07:17:30.313Z,96.39
2023-01-27T07:19:51.744Z,97.09
2023-01-27T07:22:13.223Z,96.85
2023-01-27T07:24:34.736Z,96.32
2023-01-27T07:26:56.264Z,95.99
2023-01-27T07:29:18.064Z,96.18
2023-01-27T07:31:39.845Z,96.01
2023-01-27T07:34:01.284Z,95.56
2023-01-27T07:36:22.872Z,95.25
2023-01-27T07:38:44.354Z,95.53
2023-01-27T07:41:06.830Z,95.60
2023-01-27T07:43:28.235Z,95.77
2023-01-27T07:45:54.720Z,95.67
2023-01-27T07:48:16.568Z,95.41
2023-01-27T07:50:41.439Z,96.52
2023-01-27T07:53:04.772Z,97.74
2023-01-27T07:55:26.255Z,97.46
2023-01-27T07:57:47.676Z,97.31
2023-01-27T08:00:10.442Z,97.17
2023-01-27T08:02:32.036Z,97.65
2023-01-27T08:04:53.998Z,97.31
2023-01-27T08:07:15.847Z,97.28
2023-01-27T08:09:37.262Z,97.40
2023-01-27T08:11:58.737Z,98.48
2023-01-27T08:14:20.184Z,97.48
2023-01-27T08:16:41.729Z,97.28
2023-01-27T08:19:03.204Z,96.73
2023-01-27T08:21:25.436Z,97.38
2023-01-27T08:23:47.177Z,97.27
2023-01-27T08:26:08.780Z,98.33
2023-01-27T08:28:32.168Z,98.42
2023-01-27T08:30:54.353Z,98.45
2023-01-27T08:33:15.785Z,98.43
2023-01-27T08:35:39.095Z,98.85
2023-01-27T08:38:00.655Z,98.32
2023-01-27T08:40:22.159Z,98.26
2023-01-27T08:42:43.620Z,97.65
2023-01-27T08:45:05.540Z,96.48
2023-01-27T08:47:27.003Z,96.19
2023-01-27T08:49:49.156Z,96.63
2023-01-27T08:52:10.886Z,96.42
2023-01-27T08:54:32.434Z,96.80
2023-01-27T08:56:53.940Z,97.20
2023-01-27T08:59:15.350Z,97.91
2023-01-27T09:01:36.932Z,98.16
2023-01-27T09:03:58.397Z,98.72
2023-01-27T09:06:21.787Z,98.58
2023-01-27T09:08:44.697Z,97.54
2023-01-27T09:11:10.446Z,97.52
2023-01-27T09:13:31.893Z,98.08
2023-01-27T09:15:53.883Z,97.69
2023-01-27T09:18:15.354Z,97.08
2023-01-27T09:20:39.546Z,96.75
2023-01-27T09:23:02.484Z,97.05
2023-01-27T09:25:24.513Z,97.68
2023-01-27T09:27:46.376Z,98.29
2023-01-27T09:30:10.856Z,97.82
2023-01-27T09:32:32.495Z,96.03
2023-01-27T09:34:53.946Z,96.56
2023-01-27T09:37:15.703Z,95.55
2023-01-27T09:39:47.807Z,95.51
2023-01-27T09:42:27.696Z,96.00
2023-01-27T09:45:10.735Z,95.75
2023-01-27T09:47:46.473Z,95.35
2023-01-27T09:50:29.108Z,96.12
2023-01-27T09:52:58.250Z,95.95
2023-01-27T09:55:28.341Z,94.55
2023-01-27T09:58:10.992Z,94.79
2023-01-27T10:01:03.257Z,94.44
2023-01-27T10:04:02.505Z,94.26
2023-01-27T10:06:35.775Z,94.51
2023-01-27T10:08:57.191Z,94.62
2023-01-27T10:11:21.864Z,94.65
2023-01-27T10:13:45.945Z,94.67
2023-01-27T10:16:45.897Z,93.92
2023-01-27T10:19:51.818Z,93.06
2023-01-27T10:22:29.267Z,93.11
2023-01-27T10:25:15.792Z,91.76
2023-01-27T10:27:41.537Z,91.71
2023-01-27T10:30:18.111Z,92.34
2023-01-27T10:32:42.611Z,93.41
2023-01-27T10:35:22.631Z,92.93
2023-01-27T10:38:08.985Z,92.55
2023-01-27T10:40:42.495Z,93.11
2023-01-27T10:43:56.482Z,93.42
2023-01-27T10:46:47.459Z,93.53
2023-01-27T10:49:25.439Z,93.10
2023-01-27T10:51:52.547Z,92.91
2023-01-27T10:54:25.062Z,93.11
2023-01-27T10:56:57.072Z,93.33
2023-01-27T10:59:37.207Z,92.74
2023-01-27T11:02:14.432Z,92.18
2023-01-27T11:04:46.785Z,91.89
2023-01-27T11:07:16.216Z,91.61
2023-01-27T11:10:05.973Z,91.44
2023-01-27T11:12:34.630Z,91.60
2023-01-27T11:14:56.685Z,92.60
2023-01-27T11:17:52.515Z,92.34
2023-01-27T11:20:23.066Z,92.00
2023-01-27T11:22:54.038Z,91.25
2023-01-27T11:25:33.833Z,91.08
2023-01-27T11:28:04.248Z,91.03
2023-01-27T11:30:33.986Z,90.99
2023-01-27T11:33:10.761Z,90.79
2023-01-27T11:35:32.290Z,90.78
2023-01-27T11:38:00.623Z,90.72
2023-01-27T11:40:38.404Z,90.03
2023-01-27T11:43:01.854Z,89.99
2023-01-27T11:45:24.439Z,90.35
2023-01-27T11:47:49.368Z,90.83
2023-01-27T11:50:18.839Z,90.23
2023-01-27T11:52:40.318Z,90.80
2023-01-27T11:55:13.697Z,91.31
2023-01-27T11:57:37.694Z,91.80
2023-01-27T12:00:05.595Z,91.37
2023-01-27T12:02:38.277Z,91.59
2023-01-27T12:05:05.230Z,91.61
2023-01-27T12:07:42.250Z,91.70
2023-01-27T12:10:22.487Z,92.32
2023-01-27T12:12:44.571Z,92.08
2023-01-27T12:15:14.509Z,91.74
2023-01-27T12:17:40.634Z,91.88
2023-01-27T12:20:26.741Z,91.96
2023-01-27T12:22:53.226Z,91.88
2023-01-27T12:25:20.273Z,92.66
2023-01-27T12:27:49.832Z,92.22
2023-01-27T12:30:36.963Z,92.11
2023-01-27T12:32:59.910Z,92.21
2023-01-27T12:35:26.002Z,91.52
2023-01-27T12:37:48.779Z,91.05
2023-01-27T12:40:20.009Z,91.22
2023-01-27T12:42:44.247Z,92.02
2023-01-27T12:45:29.954Z,91.92
2023-01-27T12:47:57.127Z,92.76
2023-01-27T12:50:28.049Z,92.94
2023-01-27T12:53:27.194Z,93.72
2023-01-27T12:58:59.188Z,94.19
2023-01-27T13:01:20.610Z,94.17
2023-01-27T13:04:07.189Z,94.23
2023-01-27T13:06:50.554Z,94.08
2023-01-27T13:09:35.593Z,94.50
2023-01-27T13:12:00.581Z,94.11
2023-01-27T13:14:22.079Z,94.06
2023-01-27T13:16:54.841Z,93.74
2023-01-27T13:19:18.140Z,93.93
2023-01-27T13:21:39.699Z,94.29
2023-01-27T13:24:05.482Z,94.48
2023-01-27T13:26:30.728Z,94.67
2023-01-27T13:28:58.352Z,94.95
2023-01-27T13:31:50.593Z,95.86
2023-01-27T13:34:21.034Z,95.35
2023-01-27T13:36:56.754Z,95.07
2023-01-27T13:39:54.753Z,95.59
2023-01-27T13:42:37.510Z,96.77
2023-01-27T13:45:22.556Z,96.83
2023-01-27T13:48:02.097Z,97.00
2023-01-27T13:50:33.155Z,98.62
2023-01-27T13:52:57.883Z,98.63
2023-01-27T13:55:49.651Z,99.56
2023-01-27T13:58:54.751Z,99.06
2023-01-27T14:01:42.123Z,99.24
2023-01-27T14:04:11.335Z,100.00
2023-01-27T14:07:06.656Z,99.97
2023-01-27T14:10:03.363Z,100.00
2023-01-27T14:12:36.677Z,99.97
2023-01-27T14:15:06.691Z,99.58
2023-01-27T14:17:45.927Z,99.52
2023-01-27T14:20:18.367Z,99.59
2023-01-27T14:22:56.205Z,99.32
2023-01-27T14:25:17.869Z,100.00
2023-01-27T14:27:48.679Z,99.95
2023-01-27T14:30:13.683Z,99.85
2023-01-27T14:32:56.262Z,99.51
2023-01-27T14:35:23.566Z,99.58
2023-01-27T14:38:05.359Z,99.37
2023-01-27T14:40:38.041Z,99.44
2023-01-27T14:43:16.815Z,98.84
2023-01-27T14:45:43.409Z,99.32
2023-01-27T14:48:10.875Z,100.00
2023-01-27T14:50:52.180Z,99.62
2023-01-27T14:53:19.487Z,99.43
2023-01-27T14:56:02.383Z,100.00
2023-01-27T14:58:40.961Z,100.00
2023-01-27T15:01:10.626Z,100.00
2023-01-27T15:04:05.624Z,100.00
2023-01-27T15:06:47.756Z,100.00
2023-01-27T15:09:17.127Z,100.00
2023-01-27T15:11:58.861Z,100.00
2023-01-27T15:14:57.706Z,99.92
2023-01-27T15:17:38.601Z,100.00
2023-01-27T15:20:18.794Z,100.00
2023-01-27T15:23:21.656Z,100.00
2023-01-27T15:25:48.569Z,100.00
2023-01-27T15:28:15.179Z,100.00
2023-01-27T15:30:38.524Z,100.00
2023-01-27T15:33:00.331Z,100.00
2023-01-27T15:35:36.532Z,100.00
2023-01-27T15:37:59.736Z,100.00
2023-01-27T15:40:23.073Z,100.00
2023-01-27T15:42:55.197Z,100.00
2023-01-27T15:45:27.746Z,100.00
2023-01-27T15:48:17.255Z,100.00
2023-01-27T15:50:46.260Z,100.00
2023-01-27T15:53:20.635Z,99.93
2023-01-27T15:55:52.197Z,99.87
2023-01-27T15:58:22.697Z,100.00
2023-01-27T16:00:52.467Z,100.00
2023-01-27T16:03:23.584Z,100.00
2023-01-27T16:05:49.387Z,99.97
2023-01-27T16:08:16.227Z,100.00
2023-01-27T16:10:38.296Z,99.55
2023-01-27T16:13:14.796Z,99.48
2023-01-27T16:15:37.172Z,99.26
2023-01-27T16:18:07.398Z,99.65
2023-01-27T16:20:43.880Z,99.50
2023-01-27T16:23:11.762Z,98.80
2023-01-27T16:25:45.163Z,99.31
2023-01-27T16:28:30.828Z,99.16
2023-01-27T16:31:01.520Z,99.03
2023-01-27T16:33:31.082Z,98.63
2023-01-27T16:36:06.238Z,99.00
2023-01-27T16:38:38.211Z,98.58
2023-01-27T16:41:14.670Z,98.08
2023-01-27T16:43:48.751Z,97.84
2023-01-27T16:46:39.818Z,98.01
2023-01-27T16:49:05.532Z,98.56
2023-01-27T16:51:28.950Z,98.66
2023-01-27T16:53:52.345Z,100.00
2023-01-27T16:56:24.795Z,100.00
2023-01-27T16:58:49.940Z,100.00
2023-01-27T17:01:45.233Z,100.00
2023-01-27T17:04:19.524Z,99.81
2023-01-27T17:06:42.591Z,99.83
2023-01-27T17:09:19.961Z,100.00
2023-01-27T17:11:41.774Z,100.00
2023-01-27T17:14:28.565Z,100.00
2023-01-27T17:16:51.385Z,100.00
2023-01-27T17:19:20.144Z,100.00
2023-01-27T17:21:46.908Z,100.00
2023-01-27T17:24:25.168Z,100.00
2023-01-27T17:26:49.624Z,100.00
2023-01-27T17:29:22.937Z,100.00
2023-01-27T17:31:44.615Z,100.00
2023-01-27T17:34:06.408Z,100.00
2023-01-27T17:36:27.999Z,100.00
2023-01-27T17:38:51.185Z,100.00
2023-01-27T17:41:26.637Z,100.00
2023-01-27T17:43:48.751Z,100.00
2023-01-27T17:46:26.365Z,100.00
2023-01-27T17:48:58.912Z,100.00
2023-01-27T17:51:24.951Z,100.00
2023-01-27T17:53:47.260Z,100.00
2023-01-27T17:56:33.737Z,100.00
2023-01-27T17:59:03.229Z,100.00
2023-01-27T18:01:24.733Z,100.00
2023-01-27T18:03:49.554Z,100.00
2023-01-27T18:06:14.418Z,100.00
2023-01-27T18:08:36.723Z,100.00
2023-01-27T18:11:20.263Z,100.00
2023-01-27T18:13:41.673Z,100.00
2023-01-27T18:16:20.678Z,100.00
2023-01-27T18:18:42.575Z,100.00
2023-01-27T18:21:03.970Z,100.00
2023-01-27T18:23:32.648Z,100.00
2023-01-27T18:26:25.085Z,100.00
2023-01-27T18:28:51.656Z,100.00
2023-01-27T18:31:26.027Z,100.00
2023-01-27T18:33:56.273Z,100.00
2023-01-27T18:36:21.510Z,100.00
2023-01-27T18:38:49.123Z,100.00
2023-01-27T18:41:18.800Z,100.00
2023-01-27T18:43:40.273Z,100.00
2023-01-27T18:46:01.760Z,100.00
2023-01-27T18:48:23.432Z,100.00
2023-01-27T18:50:46.737Z,100.00
2023-01-27T18:53:20.514Z,100.00
2023-01-27T18:55:42.326Z,100.00
2023-01-27T18:58:03.853Z,100.00
2023-01-27T19:00:35.888Z,100.00
2023-01-27T19:03:00.940Z,100.00
2023-01-27T19:05:26.150Z,100.00
2023-01-27T19:07:47.901Z,100.00
2023-01-27T19:10:15.289Z,100.00
2023-01-27T19:12:36.744Z,100.00
2023-01-27T19:14:58.234Z,100.00
2023-01-27T19:17:23.133Z,100.00
2023-01-27T19:19:44.604Z,100.00
2023-01-27T19:22:13.624Z,100.00
2023-01-27T19:24:35.045Z,100.00
2023-01-27T19:26:56.497Z,100.00
2023-01-27T19:29:17.924Z,100.00
2023-01-27T19:31:40.632Z,100.00
2023-01-27T19:34:02.244Z,100.00
2023-01-27T19:36:43.696Z,100.00
2023-01-27T19:39:07.823Z,100.00
2023-01-27T19:41:29.278Z,100.00
2023-01-27T19:43:50.737Z,100.00
2023-01-27T19:46:15.411Z,100.00
2023-01-27T19:48:36.839Z,100.00
2023-01-27T19:50:58.362Z,100.00
2023-01-27T19:53:20.315Z,100.00
2023-01-27T19:55:42.346Z,100.00
2023-01-27T19:58:04.140Z,100.00
2023-01-27T20:00:25.551Z,100.00
2023-01-27T20:02:47.070Z,100.00
2023-01-27T20:05:08.521Z,100.00
2023-01-27T20:07:30.046Z,100.00
2023-01-27T20:09:55.106Z,100.00
2023-01-27T20:12:18.286Z,100.00
2023-01-27T20:14:39.795Z,100.00
2023-01-27T20:17:01.632Z,100.00
2023-01-27T20:19:23.566Z,100.00
2023-01-27T20:21:46.236Z,100.00
2023-01-27T20:24:08.093Z,100.00
2023-01-27T20:26:31.238Z,100.00
2023-01-27T20:28:52.730Z,100.00
2023-01-27T20:31:23.251Z,100.00
2023-01-27T20:33:56.852Z,100.00
2023-01-27T20:36:21.444Z,100.00
2023-01-27T20:38:45.007Z,100.00
2023-01-27T20:41:09.999Z,100.00
2023-01-27T20:43:35.319Z,100.00
2023-01-27T20:46:08.112Z,100.00
2023-01-27T20:48:29.600Z,100.00
2023-01-27T20:51:00.727Z,100.00
2023-01-27T20:53:23.301Z,100.00
2023-01-27T20:55:44.786Z,100.00
2023-01-27T20:58:06.351Z,100.00
2023-01-27T21:00:27.896Z,100.00
2023-01-27T21:02:49.698Z,100.00
2023-01-27T21:05:12.750Z,100.00
2023-01-27T21:07:34.614Z,100.00
2023-01-27T21:09:56.200Z,100.00
2023-01-27T21:12:17.674Z,100.00
2023-01-27T21:14:40.082Z,100.00
2023-01-27T21:17:02.652Z,100.00
2023-01-27T21:19:25.451Z,100.00
2023-01-27T21:21:47.203Z,100.00
2023-01-27T21:24:09.797Z,100.00
2023-01-27T21:26:33.347Z,100.00
2023-01-27T21:28:54.928Z,100.00
2023-01-27T21:31:18.919Z,100.00
2023-01-27T21:33:40.465Z,100.00
2023-01-27T21:36:03.413Z,100.00
2023-01-27T21:38:24.897Z,100.00
2023-01-27T21:40:46.387Z,100.00
2023-01-27T21:43:28.774Z,100.00
2023-01-27T21:46:02.572Z,100.00
2023-01-27T21:48:23.998Z,100.00
2023-01-27T21:50:51.667Z,100.00
2023-01-27T21:53:13.131Z,100.00
2023-01-27T21:55:35.431Z,100.00
2023-01-27T21:57:56.964Z,100.00
2023-01-27T22:04:06.298Z,100.00
2023-01-27T22:06:28.298Z,100.00
2023-01-27T22:08:51.817Z,100.00
2023-01-27T22:11:13.450Z,100.00
2023-01-27T22:13:39.297Z,100.00
2023-01-27T22:16:03.803Z,100.00
2023-01-27T22:18:25.301Z,100.00
2023-01-27T22:20:46.838Z,100.00
2023-01-27T22:23:08.277Z,100.00
2023-01-27T22:25:30.873Z,100.00
2023-01-27T22:27:54.468Z,100.00
2023-01-27T22:30:18.373Z,100.00
2023-01-27T22:32:40.451Z,100.00
2023-01-27T22:35:01.961Z,100.00
2023-01-27T22:37:23.465Z,100.00
2023-01-27T22:39:45.608Z,100.00
2023-01-27T22:42:07.072Z,100.00
2023-01-27T22:44:28.494Z,100.00
2023-01-27T22:46:50.870Z,100.00
2023-01-27T22:49:12.341Z,100.00
2023-01-27T22:51:33.837Z,100.00
2023-01-27T22:53:55.740Z,100.00
2023-01-27T22:56:17.308Z,100.00
2023-01-27T22:58:38.739Z,100.00
2023-01-27T23:01:00.369Z,100.00
2023-01-27T23:03:22.652Z,100.00
2023-01-27T23:05:45.181Z,100.00
2023-01-27T23:08:06.677Z,100.00
2023-01-27T23:10:28.831Z,100.00
2023-01-27T23:12:50.583Z,100.00
2023-01-27T23:15:12.977Z,100.00
2023-01-27T23:17:35.724Z,100.00
2023-01-27T23:19:57.254Z,100.00
2023-01-27T23:22:20.008Z,100.00
2023-01-27T23:24:41.608Z,100.00
2023-01-27T23:27:03.127Z,100.00
2023-01-27T23:29:26.782Z,100.00
2023-01-27T23:31:49.563Z,100.00
2023-01-27T23:34:11.061Z,100.00
2023-01-27T23:36:32.839Z,100.00
2023-01-27T23:38:54.329Z,100.00
2023-01-27T23:41:18.540Z,100.00
2023-01-27T23:43:41.946Z,100.00
2023-01-27T23:46:03.563Z,100.00
2023-01-27T23:48:25.510Z,100.00
2023-01-27T23:50:49.481Z,100.00
2023-01-27T23:53:11.168Z,100.00
2023-01-27T23:55:33.135Z,100.00
2023-01-27T23:57:54.690Z,100.00
